Impacts METAR Board
IDs:

KPHX - Phoenix/Sky Harbor, AZ, US

Updated at: 0600 UTC 22 Oct 2021
Potential Impact None Slight Moderate High
Time 21/18Z 21/19Z 21/20Z 21/21Z 21/22Z 21/23Z 22/00Z 22/01Z 22/02Z 22/03Z 22/04Z 22/05Z 22/06Z
Temp79 81 85 86 88 88 88 86 84 78 79 77 73
Dewpt39 39 38 37 36 37 39 40 41 43 41 41 42
Altim30.10 30.09 30.06 30.03 30.01 30.00 29.99 29.98 29.99 29.99 29.99 29.99 29.99
VIS10 10 10 10 10 10 10 10 10 10 10 10 10
CIG-- -- -- -- -- -- -- -- -- -- -- -- --
CoverFEWFEWFEWFEWFEWFEWFEWSCTSCTSCTFEWSCTSCT
FltCatVFRVFRVFRVFRVFRVFRVFRVFRVFRVFRVFRVFRVFR
WX--------------------------
WDir6002803303102903103002702402800230
WSpd3 0 3 4 6 4 8 8 8 5 4 0 3
WGst-- -- -- -- -- -- -- -- -- -- -- -- --
Raw hourly METARs
KPHX 211751Z 06003KT 10SM FEW250 26/04 A3010 RMK AO2 SLP180 T02610039 10261 20156 50003
KPHX 211851Z 00000KT 10SM FEW250 27/04 A3009 RMK AO2 SLP173 T02720039
KPHX 211951Z 28003KT 10SM FEW250 29/03 A3006 RMK AO2 SLP164 T02940033
KPHX 212051Z 33004KT 10SM FEW250 30/03 A3003 RMK AO2 SLP152 T03000028 58025
KPHX 212151Z 31006KT 10SM FEW250 31/02 A3001 RMK AO2 SLP147 T03110022
KPHX 212251Z 29004KT 10SM FEW250 31/03 A3000 RMK AO2 SLP143 T03110028
KPHX 212351Z 31008KT 10SM FEW160 FEW250 31/04 A2999 RMK AO2 SLP140 T03110039 10317 20261 56012
KPHX 220051Z 30008KT 10SM FEW160 SCT250 30/04 A2998 RMK AO2 SLP139 T03000044
KPHX 220151Z 27008KT 10SM FEW160 SCT250 29/05 A2999 RMK AO2 SLP142 T02890050
KPHX 220251Z 24005KT 10SM FEW160 SCT250 26/06 A2999 RMK AO2 SLP142 T02560061 55000
KPHX 220351Z 28004KT 10SM FEW250 26/05 A2999 RMK AO2 SLP141 T02610050
KPHX 220451Z 00000KT 10SM SCT250 25/05 A2999 RMK AO2 SLP142 T02500050
KPHX 220551Z 23003KT 10SM SCT250 23/06 A2999 RMK AO2 SLP140 T02280056 10311 20228 58000



Page loaded:  06:27 UTC  |   11:27 PM Pacific  |   12:27 AM Mountain  |   01:27 AM Central  |   02:27 AM Eastern

 

ADVISORIES

FORECASTS

FORECASTS

OBSERVATIONS

USER TOOLS

ABOUT US